Map

Track Data

SID SEASON NUMBER BASIN SUBBASIN NAME ISO_TIME NATURE LAT LON WMO_WIND WMO_PRES WMO_AGENCY TRACK_TYPE DIST2LAND LANDFALL IFLAG USA_AGENCY USA_ATCF_ID USA_LAT USA_LON USA_RECORD USA_STATUS USA_WIND USA_PRES USA_SSHS USA_R34_NE USA_R34_SE USA_R34_SW USA_R34_NW USA_R50_NE USA_R50_SE USA_R50_SW USA_R50_NW USA_R64_NE USA_R64_SE USA_R64_SW USA_R64_NW USA_POCI USA_ROCI USA_RMW USA_EYE TOKYO_LAT TOKYO_LON TOKYO_GRADE TOKYO_WIND TOKYO_PRES TOKYO_R50_DIR TOKYO_R50_LONG TOKYO_R50_SHORT TOKYO_R30_DIR TOKYO_R30_LONG TOKYO_R30_SHORT TOKYO_LAND CMA_LAT CMA_LON CMA_CAT CMA_WIND CMA_PRES HKO_LAT HKO_LON HKO_CAT HKO_WIND HKO_PRES NEWDELHI_LAT NEWDELHI_LON NEWDELHI_GRADE NEWDELHI_WIND NEWDELHI_PRES NEWDELHI_CI NEWDELHI_DP NEWDELHI_POCI REUNION_LAT REUNION_LON REUNION_TYPE REUNION_WIND REUNION_PRES REUNION_TNUM REUNION_CI REUNION_RMW REUNION_R34_NE REUNION_R34_SE REUNION_R34_SW REUNION_R34_NW REUNION_R50_NE REUNION_R50_SE REUNION_R50_SW REUNION_R50_NW REUNION_R64_NE REUNION_R64_SE REUNION_R64_SW REUNION_R64_NW BOM_LAT BOM_LON BOM_TYPE BOM_WIND BOM_PRES BOM_TNUM BOM_CI BOM_RMW BOM_R34_NE BOM_R34_SE BOM_R34_SW BOM_R34_NW BOM_R50_NE BOM_R50_SE BOM_R50_SW BOM_R50_NW BOM_R64_NE BOM_R64_SE BOM_R64_SW BOM_R64_NW BOM_ROCI BOM_POCI BOM_EYE BOM_POS_METHOD BOM_PRES_METHOD NADI_LAT NADI_LON NADI_CAT NADI_WIND NADI_PRES WELLINGTON_LAT WELLINGTON_LON WELLINGTON_WIND WELLINGTON_PRES DS824_LAT DS824_LON DS824_STAGE DS824_WIND DS824_PRES TD9636_LAT TD9636_LON TD9636_STAGE TD9636_WIND TD9636_PRES TD9635_LAT TD9635_LON TD9635_WIND TD9635_PRES TD9635_ROCI NEUMANN_LAT NEUMANN_LON NEUMANN_CLASS NEUMANN_WIND NEUMANN_PRES MLC_LAT MLC_LON MLC_CLASS MLC_WIND MLC_PRES USA_GUST BOM_GUST BOM_GUST_PER REUNION_GUST REUNION_GUST_PER USA_SEAHGT USA_SEARAD_NE USA_SEARAD_SE USA_SEARAD_SW USA_SEARAD_NW STORM_SPEED STORM_DIR
1990245N20123 1990 79 WP MM CECIL 1990-09-02 06:00:00 NR 20.1000 122.900 main 200 200 O_____________ jtwc_wp WP181990 20.1000 122.900 15 -1 9 354
1990245N20123 1990 79 WP MM CECIL 1990-09-02 09:00:00 NR 20.5500 122.840 main 244 220 P_____________ WP181990 20.5500 122.840 15 -1 9 358
1990245N20123 1990 79 WP MM CECIL 1990-09-02 12:00:00 TS 21.0000 122.850 main 230 214 O_O___________ jtwc_wp WP181990 21.0000 122.800 15 -1 21.0000 123.000 1 23 1002 9 1
1990245N20123 1990 79 WP MM CECIL 1990-09-02 15:00:00 TS 21.4667 122.859 main 211 204 P_P___________ WP181990 21.4500 122.792 17 -1 21.5000 122.993 1 23 1002 9 3
1990245N20123 1990 79 WP MM CECIL 1990-09-02 18:00:00 TS 21.9429 122.886 main 204 172 O_O___________ jtwc_wp WP181990 21.9000 122.800 20 -1 22.0000 123.000 1 23 1002 10 3
1990245N20123 1990 79 WP MM CECIL 1990-09-02 21:00:00 TS 22.4250 122.911 main 172 155 P_P___________ WP181990 22.3500 122.800 22 -1 22.5000 123.022 1 26 1001 10 0
1990245N20123 1990 79 WP MM CECIL 1990-09-03 00:00:00 TS 22.9000 122.900 main 155 139 O_O___________ jtwc_wp WP181990 22.8000 122.800 25 -1 23.0000 123.000 1 29 1000 10 356
1990245N20123 1990 79 WP MM CECIL 1990-09-03 03:00:00 TS 23.3750 122.840 main 136 112 P_P___________ WP181990 23.2500 122.815 25 -1 23.5000 122.865 1 29 1000 10 350
1990245N20123 1990 79 WP MM CECIL 1990-09-03 06:00:00 TS 23.8444 122.722 main 112 83 O_OO__________ jtwc_wp WP181990 23.7000 122.800 25 -1 24.0000 122.700 1 29 1000 23.8000 122.500 TD 25 1000 10 351
1990245N20123 1990 79 WP MM CECIL 1990-09-03 09:00:00 TS 24.3613 122.669 main 81 55 P_PP__________ WP181990 24.1574 122.745 25 -1 24.5221 122.659 1 29 1000 24.4473 122.537 TD 27 1000 10 349
1990245N20123 1990 79 WP MM CECIL 1990-09-03 12:00:00 TS 24.8545 122.509 main 51 30 O_OO__________ jtwc_wp WP181990 24.6000 122.600 25 -1 25.0000 122.500 1 29 1000 25.0000 122.400 TD 30 1000 10 331
1990245N20123 1990 79 WP MM CECIL 1990-09-03 15:00:00 TS 25.2712 122.102 main 34 33 P_PP__________ WP181990 25.0300 122.345 27 -1 25.3882 121.973 1 33 999 25.3954 121.988 TD 32 997 11 313
1990245N20123 1990 79 WP MM CECIL 1990-09-03 18:00:00 TS 25.6000 121.633 main 44 44 O_OO__________ jtwc_wp WP181990 25.4000 122.000 30 -1 25.7000 121.400 2 38 998 25.7000 121.500 TS 35 995 10 310
1990245N20123 1990 79 WP MM CECIL 1990-09-03 21:00:00 TS 25.8815 121.284 main 78 78 P_PP__________ WP181990 25.6576 121.600 32 -1 25.9647 121.097 2 43 996 26.0224 121.155 TS 35 995 8 313
1990245N20123 1990 79 WP MM CECIL 1990-09-04 00:00:00 TS 26.1333 121.000 main 105 73 O_OO__________ jtwc_wp WP181990 25.9000 121.200 35 0 26.2000 120.900 3 48 995 26.3000 120.900 TS 35 995 7 318
1990245N20123 1990 79 WP MM CECIL 1990-09-04 03:00:00 TS 26.4099 120.761 main 73 44 P_PP__________ WP181990 26.2424 120.870 37 0 26.4649 120.692 3 53 992 26.5224 120.720 TS 40 992 7 324
1990245N20123 1990 79 WP MM CECIL 1990-09-04 06:00:00 TS 26.6667 120.567 main 44 14 O_OO__________ jtwc_wp WP181990 26.6000 120.600 40 0 26.7000 120.500 3 58 990 26.7000 120.600 TS 45 990 6 323
1990245N20123 1990 79 WP MM CECIL 1990-09-04 09:00:00 TS 26.8917 120.360 main 14 0 P_PP__________ WP181990 26.9225 120.333 42 0 26.8876 120.270 3 48 995 26.8650 120.477 TS 42 992 5 323
1990245N20123 1990 79 WP MM CECIL 1990-09-04 12:00:00 TS 27.0727 120.218 main 0 0 O_OO__________ jtwc_wp WP181990 27.2000 120.200 45 0 27.0000 120.100 2 38 1000 27.0000 120.400 TS 40 995 3 334
1990245N20123 1990 79 WP MM CECIL 1990-09-04 15:00:00 TS 27.1605 120.212 main 0 0 P_PP__________ WP181990 27.3925 120.290 40 0 26.9549 120.048 2 38 1000 27.1075 120.382 TS 32 997 2 23
1990245N20123 1990 79 WP MM CECIL 1990-09-04 18:00:00 TS 27.2857 120.314 main 0 0 O_OO__________ jtwc_wp WP181990 27.6000 120.500 35 0 27.0000 120.100 2 38 1000 27.2000 120.400 TD 25 1000 5 26
1990245N20123 1990 79 WP MM CECIL 1990-09-04 21:00:00 TS 27.6338 120.468 main 0 0 P_P___________ WP181990 27.9150 120.707 27 -1 27.3526 120.229 2 33 1001 TD 9 20
1990245N20123 1990 79 WP MM CECIL 1990-09-05 00:00:00 TS 28.1000 120.650 main 0 O_O___________ jtwc_wp WP181990 28.3000 120.900 20 -1 27.9000 120.400 1 29 1002 10 19

Digital Typhoon Data and Search

About IBTrACS Database

This database is a web-friendly format of International Best Track Archive for Climate Stewardship (IBTrACS), a global best track data archive curated by NOAA dating back to 1842.

Updated: 2021-10-25